createdAt,value
2019-04-14T00:00:29.632Z,9.80
2019-04-14T00:03:12.964Z,11.03
2019-04-14T00:05:45.119Z,11.10
2019-04-14T00:08:14.083Z,11.03
2019-04-14T00:10:44.572Z,11.10
2019-04-14T00:13:13.224Z,11.07
2019-04-14T00:15:45.328Z,10.30
2019-04-14T00:18:12.318Z,11.23
2019-04-14T00:20:41.044Z,10.93
2019-04-14T00:23:10.791Z,11.80
2019-04-14T00:25:39.603Z,11.50
2019-04-14T00:28:09.431Z,12.33
2019-04-14T00:30:38.291Z,11.70
2019-04-14T00:33:11.183Z,12.33
2019-04-14T00:35:41.403Z,11.93
2019-04-14T00:38:13.058Z,11.93
2019-04-14T00:40:46.043Z,12.80
2019-04-14T00:43:33.261Z,12.30
2019-04-14T00:46:04.343Z,12.37
2019-04-14T00:48:34.106Z,13.87
2019-04-14T00:51:03.003Z,12.17
2019-04-14T00:53:31.723Z,13.27
2019-04-14T00:56:01.830Z,12.70
2019-04-14T00:58:30.647Z,14.50
2019-04-14T01:01:00.433Z,14.13
2019-04-14T01:03:29.206Z,13.67
2019-04-14T01:05:59.523Z,13.63
2019-04-14T01:08:29.165Z,14.13
2019-04-14T01:11:00.885Z,13.80
2019-04-14T01:13:31.268Z,14.50
2019-04-14T01:16:07.028Z,14.30
2019-04-14T01:18:34.070Z,14.43
2019-04-14T01:21:02.784Z,14.50
2019-04-14T01:23:32.558Z,14.33
2019-04-14T01:26:02.822Z,14.13
2019-04-14T01:28:33.664Z,15.93
2019-04-14T01:31:03.316Z,15.07
2019-04-14T01:33:32.023Z,15.03
2019-04-14T01:36:01.620Z,15.50
2019-04-14T01:38:31.817Z,15.53
2019-04-14T01:41:02.002Z,15.27
2019-04-14T01:43:32.012Z,15.13
2019-04-14T01:46:10.726Z,15.57
2019-04-14T01:48:31.112Z,15.80
2019-04-14T01:51:11.230Z,16.33
2019-04-14T01:53:44.759Z,17.40
2019-04-14T01:56:29.919Z,16.07
2019-04-14T01:59:00.346Z,17.17
2019-04-14T02:01:35.088Z,17.50
2019-04-14T02:04:04.888Z,17.53
2019-04-14T02:06:35.632Z,17.37
2019-04-14T02:09:07.538Z,17.47
2019-04-14T02:11:37.645Z,17.50
2019-04-14T02:14:08.288Z,18.17
2019-04-14T02:16:44.302Z,17.73
2019-04-14T02:19:07.229Z,17.13
2019-04-14T02:21:36.709Z,18.57
2019-04-14T02:24:05.291Z,17.53
2019-04-14T02:26:35.046Z,18.60
2019-04-14T02:29:03.835Z,17.03
2019-04-14T02:31:53.131Z,19.23
2019-04-14T02:34:37.185Z,17.77
2019-04-14T02:39:39.262Z,19.00
2019-04-14T02:42:19.437Z,18.20
2019-04-14T02:44:41.968Z,18.83
2019-04-14T02:47:38.842Z,18.60
2019-04-14T02:49:34.938Z,19.67
2019-04-14T02:52:04.794Z,19.63
2019-04-14T02:54:46.505Z,18.93
2019-04-14T02:57:14.469Z,18.80
2019-04-14T02:59:41.530Z,20.97
2019-04-14T03:04:33.971Z,19.83
2019-04-14T03:07:05.364Z,20.90
2019-04-14T03:09:42.313Z,20.43
2019-04-14T03:12:24.560Z,20.20
2019-04-14T03:14:40.210Z,19.83
2019-04-14T03:17:21.148Z,21.30
2019-04-14T03:20:11.480Z,19.53
2019-04-14T03:22:47.871Z,20.20
2019-04-14T03:24:55.948Z,20.60
2019-04-14T03:27:55.198Z,20.63
2019-04-14T03:31:03.915Z,19.47
2019-04-14T03:33:43.466Z,19.73
2019-04-14T03:36:05.880Z,20.93
2019-04-14T03:38:17.113Z,21.63
2019-04-14T03:40:44.630Z,21.67
2019-04-14T03:43:32.238Z,21.83
2019-04-14T03:45:52.013Z,21.50
2019-04-14T03:53:18.796Z,21.73
2019-04-14T03:55:48.055Z,21.57
2019-04-14T03:58:13.427Z,22.93
2019-04-14T04:00:42.686Z,22.80
2019-04-14T04:03:12.885Z,21.83
2019-04-14T04:05:41.603Z,22.80
2019-04-14T04:08:11.395Z,22.30
2019-04-14T04:10:42.226Z,22.10
2019-04-14T04:13:10.795Z,23.83
2019-04-14T04:15:39.709Z,23.83
2019-04-14T04:18:19.988Z,24.90
2019-04-14T04:21:07.362Z,22.20
2019-04-14T04:23:40.378Z,22.63
2019-04-14T04:26:10.527Z,24.20
2019-04-14T04:28:58.243Z,23.97
2019-04-14T04:31:46.131Z,23.33
2019-04-14T04:34:33.813Z,24.10
2019-04-14T04:37:06.766Z,23.47
2019-04-14T04:39:39.676Z,23.57
2019-04-14T04:42:09.164Z,24.60
2019-04-14T04:44:38.251Z,24.37
2019-04-14T04:47:07.762Z,24.97
2019-04-14T04:49:36.333Z,24.40
2019-04-14T04:52:06.131Z,25.00
2019-04-14T04:54:35.037Z,25.73
2019-04-14T04:57:04.581Z,25.87
2019-04-14T04:59:34.656Z,26.70
2019-04-14T05:02:03.347Z,24.67
2019-04-14T05:04:35.820Z,25.63
2019-04-14T05:07:05.458Z,25.80
2019-04-14T05:09:38.825Z,25.63
2019-04-14T05:12:21.734Z,25.80
2019-04-14T05:14:52.364Z,27.33
2019-04-14T05:17:23.408Z,27.57
2019-04-14T05:19:52.503Z,27.57
2019-04-14T05:22:22.264Z,27.60
2019-04-14T05:24:50.972Z,26.97
2019-04-14T05:27:20.813Z,28.30
2019-04-14T05:29:49.644Z,28.87
2019-04-14T05:32:19.373Z,28.87
2019-04-14T05:34:48.300Z,29.90
2019-04-14T05:37:17.949Z,32.00
2019-04-14T05:39:46.688Z,29.20
2019-04-14T05:42:20.131Z,29.33
2019-04-14T05:44:47.082Z,29.40
2019-04-14T05:47:15.804Z,29.40
2019-04-14T05:49:48.270Z,31.33
2019-04-14T05:52:14.589Z,30.50
2019-04-14T05:54:43.059Z,32.27
2019-04-14T05:57:11.719Z,31.67
2019-04-14T05:59:40.360Z,32.43
2019-04-14T06:02:09.364Z,32.47
2019-04-14T06:04:40.279Z,32.23
2019-04-14T06:07:08.969Z,32.43
2019-04-14T06:09:37.658Z,32.53
2019-04-14T06:12:06.345Z,31.60
2019-04-14T06:14:34.920Z,34.00
2019-04-14T06:17:03.502Z,31.70
2019-04-14T06:19:39.054Z,32.30
2019-04-14T06:22:02.259Z,33.00
2019-04-14T06:24:30.995Z,34.00
2019-04-14T06:26:59.881Z,33.90
2019-04-14T06:29:29.589Z,33.60
2019-04-14T06:32:19.470Z,33.10
2019-04-14T06:35:05.971Z,33.90
2019-04-14T06:37:36.386Z,33.70
2019-04-14T06:40:08.972Z,34.63
2019-04-14T06:42:40.625Z,33.90
2019-04-14T06:45:09.184Z,34.47
2019-04-14T06:47:37.997Z,34.20
2019-04-14T06:50:07.289Z,34.47
2019-04-14T06:52:35.968Z,35.93
2019-04-14T06:55:05.688Z,35.20
2019-04-14T06:57:34.700Z,35.43
2019-04-14T07:00:03.672Z,36.77
2019-04-14T07:02:32.984Z,35.63
2019-04-14T07:05:02.247Z,36.30
2019-04-14T07:07:32.294Z,36.40
2019-04-14T07:10:00.869Z,37.17
2019-04-14T07:12:29.555Z,35.70
2019-04-14T07:14:58.142Z,35.10
2019-04-14T07:17:26.835Z,37.40
2019-04-14T07:20:01.766Z,36.47
2019-04-14T07:22:25.664Z,36.87
2019-04-14T07:24:56.309Z,36.47
2019-04-14T07:27:24.943Z,36.57
2019-04-14T07:30:04.066Z,36.47
2019-04-14T07:32:34.238Z,36.07
2019-04-14T07:35:16.398Z,36.63
2019-04-14T07:37:49.191Z,36.17
2019-04-14T07:40:22.352Z,35.07
2019-04-14T07:42:55.327Z,34.03
2019-04-14T07:45:25.623Z,36.73
2019-04-14T07:47:58.547Z,34.73
2019-04-14T07:50:36.246Z,36.23
2019-04-14T07:53:23.265Z,34.67
2019-04-14T07:56:01.075Z,33.23
2019-04-14T07:58:40.505Z,40.70
2019-04-14T08:01:11.911Z,37.97
2019-04-14T08:04:00.207Z,36.17
2019-04-14T08:06:28.945Z,36.07
2019-04-14T08:08:57.587Z,37.50
2019-04-14T08:11:29.305Z,39.83
2019-04-14T08:13:58.037Z,38.30
2019-04-14T08:16:26.628Z,36.53
2019-04-14T08:18:59.517Z,45.80
2019-04-14T08:21:28.231Z,46.10
2019-04-14T08:23:57.077Z,42.90
2019-04-14T08:26:25.634Z,39.47
2019-04-14T08:28:54.214Z,36.20
2019-04-14T08:31:22.787Z,36.07
2019-04-14T08:33:51.577Z,36.70
2019-04-14T08:36:20.160Z,38.27
2019-04-14T08:38:50.025Z,38.57
2019-04-14T08:41:18.609Z,40.33
2019-04-14T08:43:54.681Z,39.03
2019-04-14T08:46:30.737Z,43.87
2019-04-14T08:49:06.337Z,39.73
2019-04-14T08:51:45.835Z,41.20
2019-04-14T08:54:21.724Z,49.77
2019-04-14T08:56:52.102Z,46.93
2019-04-14T08:59:26.232Z,52.03
2019-04-14T09:02:21.702Z,48.23
2019-04-14T09:05:03.892Z,45.20
2019-04-14T09:07:34.223Z,42.63
2019-04-14T09:10:04.435Z,45.93
2019-04-14T09:12:44.025Z,45.03
2019-04-14T09:15:15.227Z,45.27
2019-04-14T09:17:43.800Z,42.57
2019-04-14T09:20:12.483Z,50.40
2019-04-14T09:22:41.215Z,42.53
2019-04-14T09:25:10.156Z,44.30
2019-04-14T09:27:38.988Z,41.80
2019-04-14T09:30:08.171Z,42.87
2019-04-14T09:32:37.959Z,45.00
2019-04-14T09:35:06.688Z,51.47
2019-04-14T09:37:35.379Z,46.17
2019-04-14T09:40:04.112Z,42.80
2019-04-14T09:42:32.591Z,44.33
2019-04-14T09:45:01.132Z,46.37
2019-04-14T09:47:29.667Z,44.63
2019-04-14T09:49:58.146Z,43.30
2019-04-14T09:52:26.623Z,49.00
2019-04-14T09:54:55.310Z,48.80
2019-04-14T09:57:24.266Z,44.63
2019-04-14T09:59:52.741Z,50.63
2019-04-14T10:02:22.898Z,56.07
2019-04-14T10:04:51.634Z,49.60
2019-04-14T10:07:20.303Z,47.13
2019-04-14T10:09:49.215Z,50.67
2019-04-14T10:12:18.083Z,46.73
2019-04-14T10:14:46.780Z,50.73
2019-04-14T10:17:15.274Z,49.23
2019-04-14T10:19:43.936Z,56.73
2019-04-14T10:22:12.451Z,49.93
2019-04-14T10:24:41.034Z,52.70
2019-04-14T10:27:09.901Z,46.30
2019-04-14T10:29:38.510Z,44.67
2019-04-14T10:32:07.067Z,49.17
2019-04-14T10:34:35.725Z,43.57
2019-04-14T10:37:04.372Z,41.87
2019-04-14T10:39:33.002Z,43.07
2019-04-14T10:42:01.595Z,41.23
2019-04-14T10:44:30.136Z,42.03
2019-04-14T10:46:58.809Z,45.70
2019-04-14T10:49:27.448Z,41.87
2019-04-14T10:51:55.958Z,43.20
2019-04-14T10:54:24.639Z,43.13
2019-04-14T10:56:53.511Z,51.57
2019-04-14T10:59:22.429Z,44.27
2019-04-14T11:01:50.922Z,41.37
2019-04-14T11:04:19.644Z,42.07
2019-04-14T11:06:49.972Z,44.83
2019-04-14T11:09:18.610Z,41.27
2019-04-14T11:11:47.232Z,40.73
2019-04-14T11:14:15.924Z,42.03
2019-04-14T11:16:44.615Z,42.83
2019-04-14T11:19:13.184Z,56.20
2019-04-14T11:21:43.099Z,50.60
2019-04-14T11:24:11.891Z,55.67
2019-04-14T11:26:40.449Z,44.83
2019-04-14T11:29:09.048Z,42.90
2019-04-14T11:31:54.285Z,50.07
2019-04-14T11:34:40.715Z,42.80
2019-04-14T11:37:25.912Z,45.17
2019-04-14T11:39:54.599Z,52.03
2019-04-14T11:42:23.506Z,44.07
2019-04-14T11:44:52.129Z,56.67
2019-04-14T11:47:26.938Z,59.27
2019-04-14T11:49:55.681Z,46.93
2019-04-14T11:52:24.279Z,49.07
2019-04-14T11:54:52.993Z,53.87
2019-04-14T11:57:21.892Z,45.20
2019-04-14T12:00:08.373Z,44.50
2019-04-14T12:02:39.164Z,44.27
2019-04-14T12:05:24.748Z,48.73
2019-04-14T12:08:12.938Z,44.97
2019-04-14T12:10:41.521Z,47.23
2019-04-14T12:13:10.234Z,49.33
2019-04-14T12:15:38.863Z,45.20
2019-04-14T12:18:08.468Z,46.33
2019-04-14T12:20:36.985Z,50.83
2019-04-14T12:23:05.759Z,50.57
2019-04-14T12:25:34.398Z,48.80
2019-04-14T12:28:03.018Z,51.00
2019-04-14T12:30:31.776Z,46.93
2019-04-14T12:33:00.408Z,45.60
2019-04-14T12:35:29.085Z,46.67
2019-04-14T12:37:57.803Z,44.30
2019-04-14T12:40:26.653Z,44.73
2019-04-14T12:45:42.397Z,49.23
2019-04-14T12:48:30.543Z,46.03
2019-04-14T12:51:00.811Z,45.30
2019-04-14T12:53:29.328Z,50.53
2019-04-14T12:55:57.964Z,43.67
2019-04-14T12:58:40.067Z,46.43
2019-04-14T13:01:10.305Z,46.50
2019-04-14T13:03:41.902Z,46.80
2019-04-14T13:06:09.881Z,45.90
2019-04-14T13:08:38.417Z,44.07
2019-04-14T13:11:07.155Z,44.37
2019-04-14T13:13:35.678Z,45.03
2019-04-14T13:16:04.253Z,41.67
2019-04-14T13:18:32.774Z,41.03
2019-04-14T13:21:01.273Z,44.13
2019-04-14T13:23:29.863Z,43.67
2019-04-14T13:25:58.384Z,43.17
2019-04-14T13:28:29.539Z,42.57
2019-04-14T13:30:58.098Z,40.70
2019-04-14T13:33:26.699Z,42.03
2019-04-14T13:35:55.448Z,41.20
2019-04-14T13:38:23.913Z,39.23
2019-04-14T13:40:52.588Z,38.47
2019-04-14T13:43:21.107Z,37.80
2019-04-14T13:45:49.602Z,38.97
2019-04-14T13:48:18.137Z,39.10
2019-04-14T13:50:46.720Z,37.83
2019-04-14T13:53:15.299Z,38.97
2019-04-14T13:55:43.799Z,40.03
2019-04-14T13:58:12.407Z,39.43
2019-04-14T14:00:41.110Z,41.07
2019-04-14T14:03:09.803Z,39.70
2019-04-14T14:05:38.267Z,37.97
2019-04-14T14:08:06.768Z,37.13
2019-04-14T14:10:35.240Z,38.43
2019-04-14T14:13:05.418Z,44.93
2019-04-14T14:15:47.541Z,39.13
2019-04-14T14:18:35.756Z,38.17
2019-04-14T14:21:10.116Z,37.60
2019-04-14T14:23:40.296Z,36.63
2019-04-14T14:26:10.411Z,36.90
2019-04-14T14:28:38.975Z,35.97
2019-04-14T14:31:07.471Z,37.30
2019-04-14T14:33:36.136Z,39.33
2019-04-14T14:36:04.627Z,37.57
2019-04-14T14:38:33.111Z,36.77
2019-04-14T14:41:03.306Z,37.90
2019-04-14T14:43:31.762Z,36.23
2019-04-14T14:46:17.100Z,37.13
2019-04-14T14:51:54.706Z,34.77
2019-04-14T14:54:23.252Z,33.97
2019-04-14T14:57:11.188Z,34.33
2019-04-14T14:59:39.793Z,34.90
2019-04-14T15:02:08.347Z,34.50
2019-04-14T15:04:36.833Z,35.80
2019-04-14T15:07:05.367Z,36.83
2019-04-14T15:09:33.845Z,34.13
2019-04-14T15:12:02.351Z,32.93
2019-04-14T15:14:30.875Z,34.33
2019-04-14T15:16:59.422Z,34.43
2019-04-14T15:19:27.965Z,33.23
2019-04-14T15:21:56.467Z,33.93
2019-04-14T15:24:25.135Z,33.43
2019-04-14T15:26:53.705Z,33.13
2019-04-14T15:29:22.159Z,31.17
2019-04-14T15:31:50.782Z,32.40
2019-04-14T15:34:19.368Z,33.00
2019-04-14T15:36:48.011Z,34.30
2019-04-14T15:39:16.592Z,29.53
2019-04-14T15:41:45.124Z,30.37
2019-04-14T15:44:13.620Z,27.90
2019-04-14T15:46:45.083Z,30.37
2019-04-14T15:52:42.358Z,28.37
2019-04-14T15:55:11.573Z,29.03
2019-04-14T15:57:41.734Z,25.63
2019-04-14T16:00:28.543Z,26.20
2019-04-14T16:02:58.686Z,26.17
2019-04-14T16:05:31.678Z,26.03
2019-04-14T16:08:01.841Z,25.60
2019-04-14T16:10:41.125Z,24.80
2019-04-14T16:13:29.698Z,25.10
2019-04-14T16:16:05.800Z,27.77
2019-04-14T16:18:38.727Z,24.63
2019-04-14T16:21:07.345Z,26.00
2019-04-14T16:23:35.883Z,26.67
2019-04-14T16:26:06.113Z,25.40
2019-04-14T16:28:38.794Z,26.80
2019-04-14T16:31:08.916Z,26.57
2019-04-14T16:33:39.120Z,27.20
2019-04-14T16:36:08.025Z,24.97
2019-04-14T16:38:36.565Z,25.63
2019-04-14T16:41:05.076Z,25.60
2019-04-14T16:43:33.608Z,25.43
2019-04-14T16:46:02.201Z,24.73
2019-04-14T16:48:30.678Z,25.30
2019-04-14T16:50:59.950Z,25.83
2019-04-14T16:53:30.276Z,25.27
2019-04-14T16:56:00.400Z,25.37
2019-04-14T16:58:36.468Z,26.00
2019-04-14T17:01:06.588Z,23.43
2019-04-14T17:03:35.129Z,25.43
2019-04-14T17:06:03.691Z,23.67
2019-04-14T17:08:32.220Z,24.73
2019-04-14T17:11:00.704Z,26.10
2019-04-14T17:13:30.869Z,26.13
2019-04-14T17:16:17.797Z,26.73
2019-04-14T17:18:47.969Z,24.70
2019-04-14T17:21:20.893Z,25.07
2019-04-14T17:23:57.221Z,26.63
2019-04-14T17:26:42.250Z,24.67
2019-04-14T17:29:15.201Z,24.17
2019-04-14T17:32:03.596Z,22.33
2019-04-14T17:34:42.860Z,23.57
2019-04-14T17:37:13.058Z,23.80
2019-04-14T17:39:46.286Z,23.87
2019-04-14T17:42:31.777Z,23.73
2019-04-14T17:45:17.086Z,24.40
2019-04-14T17:47:47.207Z,23.87
2019-04-14T17:50:40.548Z,28.00
2019-04-14T17:53:17.410Z,24.53
2019-04-14T17:55:49.997Z,26.00
2019-04-14T17:58:25.937Z,22.20
2019-04-14T18:00:59.137Z,22.03
2019-04-14T18:03:29.329Z,22.10
2019-04-14T18:05:59.486Z,23.33
2019-04-14T18:08:29.761Z,21.73
2019-04-14T18:11:02.877Z,21.37
2019-04-14T18:13:42.267Z,19.50
2019-04-14T18:16:28.955Z,19.87
2019-04-14T18:18:59.071Z,21.87
2019-04-14T18:21:27.555Z,24.47
2019-04-14T18:23:56.131Z,26.40
2019-04-14T18:26:24.776Z,24.17
2019-04-14T18:28:55.000Z,23.03
2019-04-14T18:31:27.921Z,24.00
2019-04-14T18:34:15.854Z,23.63
2019-04-14T18:36:54.860Z,22.40
2019-04-14T18:39:37.037Z,21.57
2019-04-14T18:42:23.656Z,19.20
2019-04-14T18:44:59.957Z,20.03
2019-04-14T18:47:32.401Z,20.40
2019-04-14T18:50:05.463Z,21.53
2019-04-14T18:52:35.714Z,22.07
2019-04-14T18:55:24.933Z,23.60
2019-04-14T18:57:57.939Z,20.00
2019-04-14T19:00:28.166Z,23.40
2019-04-14T19:02:56.647Z,22.50
2019-04-14T19:05:25.348Z,21.33
2019-04-14T19:07:54.046Z,23.00
2019-04-14T19:10:22.603Z,21.67
2019-04-14T19:12:52.791Z,19.40
2019-04-14T19:15:30.350Z,19.60
2019-04-14T19:18:15.469Z,19.90
2019-04-14T19:20:45.787Z,21.53
2019-04-14T19:23:14.538Z,19.57
2019-04-14T19:25:43.278Z,17.80
2019-04-14T19:28:12.016Z,18.63
2019-04-14T19:30:40.679Z,17.73
2019-04-14T19:33:09.337Z,17.23
2019-04-14T19:35:38.030Z,17.33
2019-04-14T19:38:06.589Z,18.50
2019-04-14T19:40:36.568Z,17.13
2019-04-14T19:43:05.298Z,19.53
2019-04-14T19:45:33.933Z,17.97
2019-04-14T19:48:02.563Z,18.00
2019-04-14T19:50:31.142Z,17.33
2019-04-14T19:53:01.401Z,20.57
2019-04-14T19:55:32.364Z,17.67
2019-04-14T19:58:13.198Z,17.33
2019-04-14T20:00:43.906Z,18.43
2019-04-14T20:03:13.393Z,17.70
2019-04-14T20:05:42.370Z,17.93
2019-04-14T20:08:12.062Z,18.67
2019-04-14T20:10:41.327Z,18.07
2019-04-14T20:13:10.035Z,19.77
2019-04-14T20:15:58.479Z,19.23
2019-04-14T20:18:28.950Z,17.13
2019-04-14T20:21:04.132Z,18.90
2019-04-14T20:23:46.207Z,18.23
2019-04-14T20:26:16.758Z,18.53
2019-04-14T20:28:52.922Z,18.60
2019-04-14T20:31:35.251Z,19.10
2019-04-14T20:34:04.019Z,18.00
2019-04-14T20:36:32.730Z,18.47
2019-04-14T20:39:01.369Z,17.97
2019-04-14T20:41:30.256Z,18.07
2019-04-14T20:44:01.673Z,18.20
2019-04-14T20:46:29.215Z,19.30
2019-04-14T20:48:57.855Z,20.43
2019-04-14T20:51:26.496Z,18.33
2019-04-14T20:53:55.340Z,20.47
2019-04-14T20:56:24.130Z,19.03
2019-04-14T20:58:52.741Z,18.43
2019-04-14T21:01:22.701Z,18.47
2019-04-14T21:04:11.300Z,18.57
2019-04-14T21:07:02.974Z,17.93
2019-04-14T21:09:45.563Z,18.73
2019-04-14T21:12:18.678Z,21.37
2019-04-14T21:14:48.984Z,20.50
2019-04-14T21:17:22.259Z,20.73
2019-04-14T21:19:58.183Z,18.77
2019-04-14T21:22:28.767Z,18.90
2019-04-14T21:24:58.930Z,18.63
2019-04-14T21:27:47.230Z,19.43
2019-04-14T21:30:17.442Z,19.57
2019-04-14T21:32:50.473Z,20.03
2019-04-14T21:35:26.454Z,19.27
2019-04-14T21:37:59.446Z,18.23
2019-04-14T21:40:30.896Z,19.17
2019-04-14T21:42:59.493Z,21.40
2019-04-14T21:45:28.487Z,20.30
2019-04-14T21:47:57.192Z,19.90
2019-04-14T21:50:25.872Z,20.57
2019-04-14T21:52:54.509Z,19.30
2019-04-14T21:55:23.124Z,19.97
2019-04-14T21:58:00.317Z,18.93
2019-04-14T22:00:54.717Z,18.10
2019-04-14T22:03:41.485Z,19.87
2019-04-14T22:06:20.831Z,19.30
2019-04-14T22:08:54.049Z,22.03
2019-04-14T22:11:24.228Z,21.77
2019-04-14T22:13:53.029Z,19.17
2019-04-14T22:16:21.640Z,21.43
2019-04-14T22:18:50.600Z,20.30
2019-04-14T22:21:19.123Z,19.17
2019-04-14T22:24:00.663Z,20.03
2019-04-14T22:26:25.952Z,19.70
2019-04-14T22:28:48.451Z,19.87
2019-04-14T22:31:16.990Z,20.37
2019-04-14T22:33:45.673Z,23.37
2019-04-14T22:36:14.262Z,19.60
2019-04-14T22:38:42.958Z,20.33
2019-04-14T22:41:11.909Z,18.53
2019-04-14T22:43:40.632Z,20.27
2019-04-14T22:46:09.664Z,20.30
2019-04-14T22:48:39.477Z,19.53
2019-04-14T22:51:08.525Z,20.00
2019-04-14T22:53:37.218Z,20.80
2019-04-14T22:56:05.896Z,19.97
2019-04-14T22:58:35.283Z,20.47
2019-04-14T23:01:05.415Z,19.83
2019-04-14T23:03:35.909Z,20.40
2019-04-14T23:06:24.314Z,18.93
2019-04-14T23:08:57.072Z,19.57
2019-04-14T23:11:43.856Z,19.37
2019-04-14T23:14:16.932Z,20.20
2019-04-14T23:17:03.456Z,19.90
2019-04-14T23:19:33.709Z,19.17
2019-04-14T23:22:04.029Z,18.87
2019-04-14T23:24:34.160Z,20.80
2019-04-14T23:27:02.736Z,18.57
2019-04-14T23:29:31.254Z,20.20
2019-04-14T23:31:59.848Z,19.03
2019-04-14T23:34:28.383Z,20.60
2019-04-14T23:36:57.019Z,19.23
2019-04-14T23:39:25.604Z,18.80
2019-04-14T23:41:54.134Z,20.43
2019-04-14T23:44:22.603Z,18.77
2019-04-14T23:46:51.205Z,19.33
2019-04-14T23:49:19.723Z,20.50
2019-04-14T23:51:48.303Z,20.13
2019-04-14T23:54:16.955Z,19.60
2019-04-14T23:56:45.620Z,19.73
2019-04-14T23:59:14.395Z,19.67
